MHLM/SAP METAR and TAF weather

Enter ICAO airport designator
Station Type Date Time Source
MHLM METAR 2022/06/28 09:00 UTC NOAA

MHLM 280900Z 00000KT 9999 FEW026 24/23 Q1014 A2995 NOSIG


Station Type Date Time Source
MHLM Decoded METAR 2022/06/28 09:00 UTC NOAA

La Mesa San Pedro Sula , Honduras (MHLM) 15-27N 087-56W 31M
Jun 28, 2022 - 05:00 AM EDT / 2022.06.28 0900 UTC
Wind: Calm:0
Visibility: greater than 7 mile(s):0
Sky conditions: mostly clear
Temperature: 75 F (24 C)
Dew Point: 73 F (23 C)
Relative Humidity: 94%
Pressure (altimeter): 29.95 in. Hg (1014 hPa)
ob: MHLM 280900Z 00000KT 9999 FEW026 24/23 Q1014 A2995 NOSIG
cycle: 9

Station Type Date Time Source
MHLM TAF 2022/06/28 06:03 UTC NOAA

TAF MHLM 280400Z 2806/2906 VRB04KT 9999 SCT028 TX32/2820Z TN23/2812Z
BECMG 2818/2820 03012KT FEW030TCU

Example: see airport list